createdAt,value
2017-10-05T00:00:12.381Z,64.30
2017-10-05T00:02:40.707Z,64.10
2017-10-05T00:05:08.283Z,64.10
2017-10-05T00:07:35.882Z,64.00
2017-10-05T00:10:04.249Z,64.30
2017-10-05T00:12:32.631Z,64.20
2017-10-05T00:15:00.960Z,63.80
2017-10-05T00:17:28.519Z,63.70
2017-10-05T00:19:56.115Z,63.60
2017-10-05T00:22:23.720Z,63.80
2017-10-05T00:24:51.272Z,64.10
2017-10-05T00:27:19.617Z,63.90
2017-10-05T00:29:47.181Z,63.90
2017-10-05T00:32:14.795Z,63.90
2017-10-05T00:34:42.398Z,64.50
2017-10-05T00:37:09.957Z,64.50
2017-10-05T00:39:37.514Z,64.80
2017-10-05T00:42:05.116Z,64.00
2017-10-05T00:44:32.667Z,64.50
2017-10-05T00:47:01.003Z,64.20
2017-10-05T00:49:28.613Z,64.00
2017-10-05T00:51:56.939Z,63.70
2017-10-05T00:54:24.558Z,63.70
2017-10-05T00:56:52.117Z,64.00
2017-10-05T00:59:19.661Z,64.00
2017-10-05T01:01:48.024Z,64.20
2017-10-05T01:04:15.592Z,64.20
2017-10-05T01:06:43.923Z,63.90
2017-10-05T01:09:11.513Z,63.80
2017-10-05T01:11:39.122Z,63.90
2017-10-05T01:14:06.685Z,63.80
2017-10-05T01:16:34.307Z,63.40
2017-10-05T01:19:01.867Z,63.30
2017-10-05T01:21:29.418Z,64.00
2017-10-05T01:23:57.017Z,64.00
2017-10-05T01:26:25.405Z,63.70
2017-10-05T01:28:52.964Z,63.60
2017-10-05T01:31:20.526Z,63.60
2017-10-05T01:33:48.134Z,64.00
2017-10-05T01:36:15.686Z,63.60
2017-10-05T01:38:43.235Z,63.30
2017-10-05T01:41:10.848Z,63.60
2017-10-05T01:43:39.181Z,63.50
2017-10-05T01:46:06.741Z,63.50
2017-10-05T01:48:34.346Z,63.50
2017-10-05T01:51:02.692Z,63.90
2017-10-05T01:53:30.272Z,63.80
2017-10-05T01:55:57.872Z,63.60
2017-10-05T01:58:25.438Z,63.90
2017-10-05T02:00:53.033Z,63.80
2017-10-05T02:03:20.634Z,63.60
2017-10-05T02:05:48.993Z,64.50
2017-10-05T02:08:16.556Z,64.40
2017-10-05T02:10:44.166Z,64.30
2017-10-05T02:13:11.721Z,64.90
2017-10-05T02:15:39.277Z,64.50
2017-10-05T02:18:06.869Z,64.70
2017-10-05T02:20:34.442Z,64.20
2017-10-05T02:23:02.048Z,64.40
2017-10-05T02:25:29.602Z,64.30
2017-10-05T02:27:57.919Z,64.20
2017-10-05T02:30:25.506Z,64.20
2017-10-05T02:32:53.059Z,64.50
2017-10-05T02:35:20.675Z,64.20
2017-10-05T02:37:48.238Z,64.00
2017-10-05T02:40:15.793Z,64.40
2017-10-05T02:42:43.400Z,64.40
2017-10-05T02:45:10.960Z,64.30
2017-10-05T02:47:38.539Z,64.20
2017-10-05T02:50:06.137Z,64.20
2017-10-05T02:52:33.751Z,65.20
2017-10-05T02:55:01.327Z,65.10
2017-10-05T02:57:28.890Z,65.30
2017-10-05T02:59:56.486Z,65.40
2017-10-05T03:02:24.469Z,65.40
2017-10-05T03:04:52.032Z,65.50
2017-10-05T03:07:19.633Z,64.70
2017-10-05T03:09:47.183Z,65.10
2017-10-05T03:12:14.789Z,64.50
2017-10-05T03:14:42.341Z,64.60
2017-10-05T03:17:10.662Z,64.30
2017-10-05T03:19:38.280Z,64.80
2017-10-05T03:22:06.624Z,64.40
2017-10-05T03:24:34.195Z,64.40
2017-10-05T03:27:01.796Z,64.10
2017-10-05T03:29:29.367Z,64.20
2017-10-05T03:31:56.960Z,64.60
2017-10-05T03:34:24.517Z,65.10
2017-10-05T03:36:52.113Z,64.90
2017-10-05T03:39:20.476Z,64.80
2017-10-05T03:41:48.092Z,64.70
2017-10-05T03:44:15.651Z,65.00
2017-10-05T03:46:43.218Z,64.60
2017-10-05T03:49:10.824Z,64.30
2017-10-05T03:51:38.374Z,63.90
2017-10-05T03:54:06.000Z,64.10
2017-10-05T03:56:33.562Z,64.30
2017-10-05T03:59:01.141Z,64.60
2017-10-05T04:01:28.701Z,64.10
2017-10-05T04:03:56.321Z,64.50
2017-10-05T04:06:23.894Z,64.50
2017-10-05T04:08:51.451Z,64.00
2017-10-05T04:11:19.049Z,64.30
2017-10-05T04:13:46.606Z,63.90
2017-10-05T04:16:14.226Z,63.70
2017-10-05T04:18:41.778Z,63.70
2017-10-05T04:21:09.330Z,63.80
2017-10-05T04:23:37.689Z,63.80
2017-10-05T04:26:05.242Z,64.50
2017-10-05T04:28:32.834Z,63.60
2017-10-05T04:31:00.451Z,64.20
2017-10-05T04:33:28.005Z,64.40
2017-10-05T04:35:55.569Z,64.60
2017-10-05T04:38:23.205Z,64.20
2017-10-05T04:40:50.775Z,64.50
2017-10-05T04:43:18.321Z,64.20
2017-10-05T04:45:45.914Z,64.10
2017-10-05T04:48:13.492Z,64.40
2017-10-05T04:50:41.087Z,64.10
2017-10-05T04:53:08.649Z,63.90
2017-10-05T04:55:36.251Z,63.20
2017-10-05T04:58:03.814Z,62.80
2017-10-05T05:00:31.382Z,63.60
2017-10-05T05:02:58.992Z,64.30
2017-10-05T05:05:26.549Z,62.80
2017-10-05T05:07:54.114Z,62.60
2017-10-05T05:10:21.723Z,63.20
2017-10-05T05:12:49.287Z,63.40
2017-10-05T05:15:16.849Z,63.80
2017-10-05T05:17:44.430Z,63.40
2017-10-05T05:20:12.758Z,62.40
2017-10-05T05:22:40.354Z,62.40
2017-10-05T05:25:07.950Z,62.70
2017-10-05T05:27:35.540Z,62.90
2017-10-05T05:30:03.144Z,62.30
2017-10-05T05:32:30.698Z,62.50
2017-10-05T05:34:58.258Z,62.80
2017-10-05T05:37:25.859Z,62.30
2017-10-05T05:39:53.461Z,62.10
2017-10-05T05:42:21.036Z,62.70
2017-10-05T05:44:48.590Z,63.00
2017-10-05T05:47:16.198Z,62.70
2017-10-05T05:49:43.755Z,63.20
2017-10-05T05:52:11.338Z,62.80
2017-10-05T05:54:38.965Z,62.40
2017-10-05T05:57:07.285Z,61.90
2017-10-05T05:59:34.866Z,61.90
2017-10-05T06:02:02.414Z,61.80
2017-10-05T06:04:30.022Z,61.60
2017-10-05T06:06:58.350Z,61.10
2017-10-05T06:09:25.937Z,61.10
2017-10-05T06:11:53.500Z,60.70
2017-10-05T06:14:21.089Z,60.80
2017-10-05T06:16:49.405Z,61.20
2017-10-05T06:19:17.019Z,61.20
2017-10-05T06:21:45.414Z,60.90
2017-10-05T06:24:21.462Z,61.80
2017-10-05T06:26:49.851Z,62.70
2017-10-05T06:29:17.476Z,62.50
2017-10-05T06:31:45.117Z,62.90
2017-10-05T06:34:12.752Z,62.80
2017-10-05T06:36:40.495Z,62.70
2017-10-05T06:39:08.968Z,62.50
2017-10-05T06:41:37.362Z,62.10
2017-10-05T06:44:05.029Z,62.10
2017-10-05T06:46:32.679Z,62.10
2017-10-05T06:49:00.309Z,62.10
2017-10-05T06:51:27.950Z,61.50
2017-10-05T06:53:55.582Z,61.50
2017-10-05T06:56:23.308Z,61.40
2017-10-05T06:58:51.673Z,61.10
2017-10-05T07:01:19.324Z,61.00
2017-10-05T07:03:46.956Z,60.40
2017-10-05T07:06:14.638Z,60.50
2017-10-05T07:08:42.222Z,60.30
2017-10-05T07:11:09.914Z,60.10
2017-10-05T07:13:38.316Z,60.00
2017-10-05T07:16:05.930Z,59.90
2017-10-05T07:18:33.707Z,59.90
2017-10-05T07:21:02.156Z,59.80
2017-10-05T07:23:29.761Z,59.70
2017-10-05T07:25:57.401Z,59.50
2017-10-05T07:28:25.039Z,59.20
2017-10-05T07:30:59.241Z,59.90
2017-10-05T07:33:27.026Z,59.60
2017-10-05T07:35:54.631Z,59.50
2017-10-05T07:38:23.038Z,59.70
2017-10-05T07:40:50.652Z,60.20
2017-10-05T07:46:15.354Z,58.60
2017-10-05T07:48:43.002Z,58.00
2017-10-05T07:51:10.574Z,58.30
2017-10-05T07:53:38.236Z,56.60
2017-10-05T07:56:05.855Z,56.40
2017-10-05T07:58:33.447Z,56.90
2017-10-05T08:01:01.050Z,55.70
2017-10-05T08:03:29.599Z,55.50
2017-10-05T08:05:57.235Z,55.30
2017-10-05T08:08:24.943Z,54.50
2017-10-05T08:10:52.696Z,54.40
2017-10-05T08:13:21.256Z,53.80
2017-10-05T08:15:49.412Z,52.60
2017-10-05T08:18:17.108Z,53.30
2017-10-05T08:20:44.720Z,53.10
2017-10-05T08:23:12.378Z,53.20
2017-10-05T08:25:40.204Z,51.40
2017-10-05T08:28:07.873Z,50.50
2017-10-05T08:30:35.507Z,48.80
2017-10-05T08:33:03.152Z,48.00
2017-10-05T08:35:30.944Z,47.70
2017-10-05T08:37:58.726Z,48.30
2017-10-05T08:40:26.403Z,47.10
2017-10-05T08:42:54.816Z,44.00
2017-10-05T08:45:25.061Z,43.60
2017-10-05T08:47:52.750Z,41.30
2017-10-05T08:50:20.366Z,37.80
2017-10-05T08:52:48.223Z,33.50
2017-10-05T08:55:16.600Z,38.70
2017-10-05T08:57:44.982Z,39.90
2017-10-05T09:00:12.600Z,39.80
2017-10-05T09:02:40.213Z,41.00
2017-10-05T09:05:12.688Z,42.30
2017-10-05T09:07:40.313Z,41.30
2017-10-05T09:10:08.769Z,39.90
2017-10-05T09:12:36.351Z,39.70
2017-10-05T09:15:03.971Z,37.90
2017-10-05T09:17:31.638Z,33.80
2017-10-05T09:19:59.208Z,32.60
2017-10-05T09:22:26.869Z,30.50
2017-10-05T09:24:54.584Z,27.80
2017-10-05T09:27:23.032Z,26.90
2017-10-05T09:29:51.633Z,26.40
2017-10-05T09:32:19.282Z,26.30
2017-10-05T09:34:46.863Z,27.20
2017-10-05T09:37:15.213Z,28.50
2017-10-05T09:39:42.987Z,28.20
2017-10-05T09:42:10.729Z,29.90
2017-10-05T09:44:38.400Z,29.50
2017-10-05T09:47:06.015Z,30.70
2017-10-05T09:49:33.896Z,31.00
2017-10-05T09:52:01.560Z,32.40
2017-10-05T09:54:35.353Z,33.10
2017-10-05T09:57:03.169Z,33.90
2017-10-05T09:59:30.905Z,32.50
2017-10-05T10:01:58.614Z,31.00
2017-10-05T10:07:15.611Z,32.60
2017-10-05T10:09:43.412Z,32.70
2017-10-05T10:12:11.227Z,31.90
2017-10-05T10:14:39.219Z,31.50
2017-10-05T10:17:07.146Z,30.70
2017-10-05T10:19:35.050Z,30.90
2017-10-05T10:22:02.828Z,30.70
2017-10-05T10:24:30.497Z,32.30
2017-10-05T10:26:58.078Z,32.60
2017-10-05T10:29:25.685Z,32.50
2017-10-05T10:31:53.286Z,32.00
2017-10-05T10:34:20.855Z,33.30
2017-10-05T10:36:48.490Z,33.40
2017-10-05T10:39:16.914Z,34.90
2017-10-05T10:41:44.503Z,34.90
2017-10-05T10:44:12.126Z,33.50
2017-10-05T10:46:39.707Z,33.80
2017-10-05T10:49:07.287Z,34.50
2017-10-05T10:51:36.164Z,35.20
2017-10-05T10:54:03.842Z,35.40
2017-10-05T10:56:31.450Z,35.80
2017-10-05T10:58:59.036Z,35.30
2017-10-05T11:01:26.746Z,36.70
2017-10-05T11:03:54.351Z,35.40
2017-10-05T11:06:22.039Z,34.30
2017-10-05T11:08:50.369Z,32.20
2017-10-05T11:11:17.930Z,32.10
2017-10-05T11:13:45.822Z,31.10
2017-10-05T11:16:13.567Z,30.10
2017-10-05T11:18:41.143Z,31.60
2017-10-05T11:21:09.142Z,32.00
2017-10-05T11:23:36.794Z,31.40
2017-10-05T11:26:05.136Z,31.90
2017-10-05T11:28:32.769Z,31.70
2017-10-05T11:31:00.431Z,32.70
2017-10-05T11:33:28.050Z,33.30
2017-10-05T11:35:55.688Z,33.10
2017-10-05T11:38:23.365Z,33.50
2017-10-05T11:40:51.002Z,34.20
2017-10-05T11:43:18.679Z,34.70
2017-10-05T11:45:47.821Z,34.80
2017-10-05T11:48:16.781Z,34.60
2017-10-05T11:50:44.553Z,35.10
2017-10-05T11:53:12.166Z,35.10
2017-10-05T11:55:40.651Z,36.00
2017-10-05T11:58:08.482Z,36.20
2017-10-05T12:00:36.154Z,36.50
2017-10-05T12:03:03.891Z,37.30
2017-10-05T12:05:31.568Z,37.60
2017-10-05T12:07:59.963Z,38.20
2017-10-05T12:10:27.543Z,38.20
2017-10-05T12:12:55.120Z,38.10
2017-10-05T12:15:22.793Z,38.30
2017-10-05T12:17:50.372Z,38.30
2017-10-05T12:20:17.965Z,38.70
2017-10-05T12:22:46.373Z,40.80
2017-10-05T12:25:13.933Z,40.80
2017-10-05T12:27:41.553Z,42.50
2017-10-05T12:30:09.183Z,43.50
2017-10-05T12:32:36.787Z,43.70
2017-10-05T12:35:05.218Z,46.00
2017-10-05T12:37:32.814Z,46.00
2017-10-05T12:40:01.197Z,46.10
2017-10-05T12:42:29.572Z,47.20
2017-10-05T12:44:57.251Z,47.20
2017-10-05T12:47:25.590Z,47.90
2017-10-05T12:49:53.173Z,47.90
2017-10-05T12:52:21.576Z,50.20
2017-10-05T12:54:49.183Z,50.70
2017-10-05T12:57:16.808Z,50.60
2017-10-05T12:59:44.459Z,50.10
2017-10-05T13:02:12.198Z,50.30
2017-10-05T13:04:40.660Z,48.40
2017-10-05T13:07:08.243Z,48.00
2017-10-05T13:09:36.666Z,48.80
2017-10-05T13:12:04.362Z,48.80
2017-10-05T13:14:31.998Z,50.20
2017-10-05T13:17:00.350Z,52.00
2017-10-05T13:19:28.077Z,52.00
2017-10-05T13:21:55.718Z,52.70
2017-10-05T13:24:23.318Z,52.30
2017-10-05T13:26:51.762Z,52.90
2017-10-05T13:29:19.489Z,52.80
2017-10-05T13:31:47.438Z,53.20
2017-10-05T13:34:15.074Z,53.60
2017-10-05T13:36:42.651Z,54.30
2017-10-05T13:39:10.994Z,55.30
2017-10-05T13:41:38.591Z,55.20
2017-10-05T13:44:06.173Z,56.10
2017-10-05T13:46:33.810Z,56.80
2017-10-05T13:49:01.418Z,57.90
2017-10-05T13:51:29.213Z,59.60
2017-10-05T13:53:56.839Z,59.10
2017-10-05T13:56:24.922Z,59.50
2017-10-05T13:58:52.634Z,59.30
2017-10-05T14:01:20.410Z,60.00
2017-10-05T14:03:48.042Z,61.30
2017-10-05T14:06:15.682Z,63.40
2017-10-05T14:08:43.326Z,64.00
2017-10-05T14:11:13.808Z,65.00
2017-10-05T14:13:41.508Z,65.90
2017-10-05T14:16:09.104Z,67.00
2017-10-05T14:18:36.880Z,69.20
2017-10-05T14:21:04.454Z,71.40
2017-10-05T14:23:32.119Z,71.00
2017-10-05T14:25:59.733Z,72.50
2017-10-05T14:28:27.303Z,74.10
2017-10-05T14:30:54.948Z,74.30
2017-10-05T14:33:22.552Z,74.60
2017-10-05T14:35:50.213Z,74.90
2017-10-05T14:38:17.824Z,75.40
2017-10-05T14:40:45.423Z,76.60
2017-10-05T14:43:13.038Z,77.60
2017-10-05T14:45:40.680Z,78.00
2017-10-05T14:48:08.240Z,77.30
2017-10-05T14:50:35.797Z,78.30
2017-10-05T14:53:03.427Z,78.60
2017-10-05T14:55:31.809Z,80.00
2017-10-05T14:57:59.398Z,80.00
2017-10-05T15:00:26.998Z,80.00
2017-10-05T15:02:54.577Z,79.60
2017-10-05T15:05:22.689Z,80.40
2017-10-05T15:07:50.250Z,79.80
2017-10-05T15:10:17.797Z,79.80
2017-10-05T15:12:45.419Z,80.70
2017-10-05T15:15:13.006Z,80.30
2017-10-05T15:17:41.379Z,81.80
2017-10-05T15:20:09.752Z,81.80
2017-10-05T15:22:37.378Z,81.90
2017-10-05T15:25:05.715Z,81.20
2017-10-05T15:27:33.308Z,81.20
2017-10-05T15:30:01.709Z,81.70
2017-10-05T15:32:30.129Z,81.00
2017-10-05T15:34:57.923Z,81.10
2017-10-05T15:37:25.478Z,81.20
2017-10-05T15:39:53.103Z,81.80
2017-10-05T15:42:20.663Z,82.40
2017-10-05T15:44:48.259Z,82.70
2017-10-05T15:47:15.903Z,82.80
2017-10-05T15:49:45.253Z,83.20
2017-10-05T15:52:25.683Z,82.80
2017-10-05T15:55:07.829Z,83.70
2017-10-05T15:57:36.757Z,83.70
2017-10-05T16:00:04.339Z,83.70
2017-10-05T16:02:32.464Z,83.90
2017-10-05T16:05:00.070Z,84.20
2017-10-05T16:07:37.877Z,84.40
2017-10-05T16:10:07.878Z,84.10
2017-10-05T16:12:37.511Z,84.10
2017-10-05T16:15:07.133Z,84.70
2017-10-05T16:17:38.443Z,84.80
2017-10-05T16:20:07.854Z,85.40
2017-10-05T16:22:39.111Z,85.30
2017-10-05T16:25:08.857Z,85.20
2017-10-05T16:27:38.698Z,85.40
2017-10-05T16:30:09.272Z,85.60
2017-10-05T16:32:38.901Z,85.70
2017-10-05T16:35:10.310Z,82.90
2017-10-05T16:37:39.909Z,82.80
2017-10-05T16:40:09.676Z,82.50
2017-10-05T16:42:40.043Z,82.60
2017-10-05T16:45:09.641Z,82.50
2017-10-05T16:47:40.368Z,81.80
2017-10-05T16:50:10.932Z,81.80
2017-10-05T16:52:40.638Z,81.40
2017-10-05T16:55:10.203Z,82.30
2017-10-05T16:57:40.758Z,81.30
2017-10-05T17:00:10.257Z,81.20
2017-10-05T17:02:40.109Z,80.70
2017-10-05T17:05:10.563Z,80.40
2017-10-05T17:07:39.089Z,80.90
2017-10-05T17:10:09.647Z,81.10
2017-10-05T17:12:39.327Z,83.60
2017-10-05T17:15:09.262Z,80.70
2017-10-05T17:17:37.827Z,80.80
2017-10-05T17:20:06.381Z,81.40
2017-10-05T17:22:35.206Z,80.80
2017-10-05T17:25:04.626Z,81.90
2017-10-05T17:27:33.751Z,81.10
2017-10-05T17:30:03.278Z,82.90
2017-10-05T17:32:32.206Z,81.70
2017-10-05T17:35:01.507Z,82.30
2017-10-05T17:37:30.812Z,81.90
2017-10-05T17:39:59.532Z,81.20
2017-10-05T17:42:28.925Z,82.50
2017-10-05T17:44:57.149Z,82.50
2017-10-05T17:47:24.751Z,82.20
2017-10-05T17:49:52.323Z,81.90
2017-10-05T17:52:19.941Z,82.40
2017-10-05T17:54:47.954Z,82.70
2017-10-05T17:57:15.541Z,82.70
2017-10-05T17:59:43.346Z,83.00
2017-10-05T18:02:10.923Z,82.90
2017-10-05T18:04:38.500Z,83.60
2017-10-05T18:07:06.130Z,83.30
2017-10-05T18:09:34.098Z,84.80
2017-10-05T18:12:01.702Z,84.20
2017-10-05T18:14:29.319Z,83.20
2017-10-05T18:16:57.700Z,82.40
2017-10-05T18:19:25.527Z,84.10
2017-10-05T18:21:53.133Z,83.70
2017-10-05T18:24:20.776Z,82.60
2017-10-05T18:26:48.944Z,82.80
2017-10-05T18:29:17.361Z,84.00
2017-10-05T18:31:45.301Z,84.00
2017-10-05T18:34:12.869Z,83.40
2017-10-05T18:36:40.467Z,83.90
2017-10-05T18:39:08.073Z,83.60
2017-10-05T18:41:35.714Z,83.00
2017-10-05T18:44:04.820Z,83.70
2017-10-05T18:46:33.298Z,83.10
2017-10-05T18:49:01.075Z,83.10
2017-10-05T18:51:29.459Z,83.80
2017-10-05T18:53:57.967Z,84.10
2017-10-05T18:56:26.303Z,83.50
2017-10-05T18:58:53.909Z,83.50
2017-10-05T19:01:23.380Z,84.50
2017-10-05T19:03:51.780Z,85.30
2017-10-05T19:06:19.364Z,85.30
2017-10-05T19:08:47.205Z,84.30
2017-10-05T19:11:14.787Z,84.50
2017-10-05T19:13:42.385Z,85.10
2017-10-05T19:16:10.834Z,84.20
2017-10-05T19:18:39.225Z,84.20
2017-10-05T19:21:06.810Z,84.70
2017-10-05T19:23:34.444Z,84.60
2017-10-05T19:26:02.005Z,84.50
2017-10-05T19:28:29.609Z,84.20
2017-10-05T19:30:59.169Z,83.80
2017-10-05T19:33:26.743Z,83.80
2017-10-05T19:35:54.338Z,83.70
2017-10-05T19:38:22.742Z,83.40
2017-10-05T19:40:51.633Z,83.40
2017-10-05T19:43:19.254Z,84.10
2017-10-05T19:45:46.827Z,84.30
2017-10-05T19:48:15.176Z,83.60
2017-10-05T19:50:42.804Z,83.60
2017-10-05T19:53:11.222Z,83.60
2017-10-05T19:55:38.800Z,84.10
2017-10-05T19:58:06.417Z,83.30
2017-10-05T20:00:34.001Z,82.70
2017-10-05T20:03:03.651Z,82.90
2017-10-05T20:05:31.563Z,82.60
2017-10-05T20:07:59.499Z,83.30
2017-10-05T20:10:27.851Z,82.30
2017-10-05T20:12:55.431Z,82.30
2017-10-05T20:15:25.638Z,83.30
2017-10-05T20:17:55.897Z,82.30
2017-10-05T20:20:44.218Z,82.00
2017-10-05T20:23:18.257Z,82.10
2017-10-05T20:25:51.671Z,82.10
2017-10-05T20:28:40.014Z,82.70
2017-10-05T20:31:24.327Z,81.80
2017-10-05T20:33:52.703Z,82.50
2017-10-05T20:36:21.221Z,82.10
2017-10-05T20:38:48.798Z,82.10
2017-10-05T20:41:16.471Z,81.90
2017-10-05T20:43:44.105Z,82.50
2017-10-05T20:46:11.726Z,81.80
2017-10-05T20:48:40.108Z,83.00
2017-10-05T20:51:08.459Z,82.20
2017-10-05T20:53:36.078Z,82.20
2017-10-05T20:56:03.642Z,82.40
2017-10-05T20:58:31.257Z,82.40
2017-10-05T21:00:59.078Z,82.50
2017-10-05T21:03:26.659Z,83.10
2017-10-05T21:05:54.251Z,82.70
2017-10-05T21:08:21.849Z,82.50
2017-10-05T21:10:49.482Z,82.50
2017-10-05T21:13:17.823Z,83.00
2017-10-05T21:15:45.413Z,83.00
2017-10-05T21:18:13.038Z,82.60
2017-10-05T21:20:40.668Z,82.50
2017-10-05T21:23:08.239Z,82.30
2017-10-05T21:25:35.880Z,82.60
2017-10-05T21:28:04.267Z,82.00
2017-10-05T21:30:32.606Z,82.60
2017-10-05T21:33:00.245Z,82.60
2017-10-05T21:35:27.839Z,82.50
2017-10-05T21:37:55.419Z,82.10
2017-10-05T21:40:23.811Z,83.30
2017-10-05T21:42:51.383Z,83.30
2017-10-05T21:45:18.993Z,83.00
2017-10-05T21:47:46.609Z,83.10
2017-10-05T21:50:14.223Z,83.80
2017-10-05T21:52:42.575Z,84.60
2017-10-05T21:55:10.150Z,84.50
2017-10-05T21:57:37.764Z,82.80
2017-10-05T22:00:05.381Z,82.50
2017-10-05T22:02:33.005Z,81.90
2017-10-05T22:05:00.587Z,82.10
2017-10-05T22:07:28.171Z,82.40
2017-10-05T22:09:55.781Z,82.70
2017-10-05T22:12:23.350Z,82.50
2017-10-05T22:14:50.965Z,81.60
2017-10-05T22:17:19.306Z,81.90
2017-10-05T22:19:46.874Z,81.90
2017-10-05T22:22:14.489Z,82.10
2017-10-05T22:24:42.075Z,81.90
2017-10-05T22:27:09.696Z,82.40
2017-10-05T22:29:38.037Z,81.30
2017-10-05T22:32:05.666Z,81.30
2017-10-05T22:34:33.291Z,81.70
2017-10-05T22:37:01.641Z,82.50
2017-10-05T22:39:29.218Z,81.80
2017-10-05T22:41:57.606Z,82.40
2017-10-05T22:44:26.012Z,82.10
2017-10-05T22:46:53.625Z,82.10
2017-10-05T22:49:21.421Z,81.80
2017-10-05T22:51:49.083Z,81.20
2017-10-05T22:54:17.415Z,81.70
2017-10-05T22:56:45.002Z,81.60
2017-10-05T22:59:12.622Z,81.60
2017-10-05T23:01:40.207Z,81.60
2017-10-05T23:04:07.844Z,82.30
2017-10-05T23:06:35.455Z,82.30
2017-10-05T23:09:03.811Z,83.00
2017-10-05T23:11:31.423Z,83.00
2017-10-05T23:13:59.002Z,82.50
2017-10-05T23:16:26.572Z,83.10
2017-10-05T23:18:54.938Z,83.30
2017-10-05T23:21:22.551Z,83.30
2017-10-05T23:23:50.122Z,83.00
2017-10-05T23:26:18.511Z,83.20
2017-10-05T23:28:46.099Z,83.00
2017-10-05T23:31:13.669Z,83.10
2017-10-05T23:33:41.291Z,83.40
2017-10-05T23:36:09.631Z,84.00
2017-10-05T23:38:37.361Z,84.00
2017-10-05T23:41:04.936Z,84.00
2017-10-05T23:43:32.520Z,83.80
2017-10-05T23:46:00.147Z,83.30
2017-10-05T23:48:27.721Z,84.20
2017-10-05T23:50:55.315Z,84.30
2017-10-05T23:53:22.923Z,83.40
2017-10-05T23:55:50.550Z,83.20
2017-10-05T23:58:18.115Z,83.20
